createdAt,value
2023-05-16T00:00:25.746Z,92.16
2023-05-16T00:02:43.291Z,91.65
2023-05-16T00:05:00.427Z,92.30
2023-05-16T00:07:18.528Z,92.17
2023-05-16T00:09:35.525Z,92.12
2023-05-16T00:11:52.864Z,91.80
2023-05-16T00:14:10.155Z,91.91
2023-05-16T00:16:27.478Z,91.44
2023-05-16T00:18:44.787Z,91.28
2023-05-16T00:21:03.005Z,90.27
2023-05-16T00:23:20.345Z,90.20
2023-05-16T00:25:38.579Z,90.54
2023-05-16T00:27:56.263Z,89.84
2023-05-16T00:30:13.484Z,88.58
2023-05-16T00:32:30.803Z,88.34
2023-05-16T00:34:48.239Z,87.65
2023-05-16T00:37:05.635Z,87.50
2023-05-16T00:39:22.899Z,86.70
2023-05-16T00:41:40.149Z,86.89
2023-05-16T00:43:57.759Z,87.35
2023-05-16T00:46:14.735Z,86.73
2023-05-16T00:48:32.132Z,85.88
2023-05-16T00:50:50.045Z,86.52
2023-05-16T00:53:07.357Z,86.44
2023-05-16T00:55:24.636Z,85.43
2023-05-16T00:57:41.887Z,85.95
2023-05-16T00:59:59.521Z,86.25
2023-05-16T01:02:16.901Z,86.58
2023-05-16T01:04:34.199Z,85.59
2023-05-16T01:06:51.510Z,85.78
2023-05-16T01:09:08.776Z,86.47
2023-05-16T01:11:26.332Z,85.07
2023-05-16T01:13:43.950Z,84.86
2023-05-16T01:16:01.246Z,84.87
2023-05-16T01:18:18.942Z,85.88
2023-05-16T01:20:36.269Z,85.99
2023-05-16T01:22:53.564Z,85.34
2023-05-16T01:25:10.559Z,84.45
2023-05-16T01:27:29.780Z,84.69
2023-05-16T01:29:47.033Z,84.30
2023-05-16T01:32:04.392Z,84.32
2023-05-16T01:34:21.316Z,84.41
2023-05-16T01:36:38.614Z,84.07
2023-05-16T01:38:56.752Z,84.50
2023-05-16T01:41:14.057Z,84.91
2023-05-16T01:43:31.381Z,84.42
2023-05-16T01:45:48.640Z,84.44
2023-05-16T01:48:06.420Z,85.29
2023-05-16T01:50:23.915Z,83.51
2023-05-16T01:52:43.145Z,83.35
2023-05-16T01:55:00.979Z,84.02
2023-05-16T01:57:18.327Z,84.75
2023-05-16T01:59:36.673Z,84.11
2023-05-16T02:01:54.376Z,84.87
2023-05-16T02:04:12.169Z,84.23
2023-05-16T02:06:29.442Z,83.85
2023-05-16T02:08:46.743Z,83.95
2023-05-16T02:11:04.746Z,84.40
2023-05-16T02:13:22.066Z,84.29
2023-05-16T02:15:39.702Z,84.72
2023-05-16T02:17:58.075Z,84.30
2023-05-16T02:20:15.361Z,84.11
2023-05-16T02:22:32.625Z,84.97
2023-05-16T02:24:50.967Z,84.18
2023-05-16T02:27:08.336Z,83.94
2023-05-16T02:29:25.605Z,84.41
2023-05-16T02:31:43.901Z,84.95
2023-05-16T02:34:01.296Z,84.63
2023-05-16T02:36:18.493Z,84.36
2023-05-16T02:38:37.053Z,85.05
2023-05-16T02:40:54.296Z,84.56
2023-05-16T02:43:11.624Z,84.96
2023-05-16T02:45:28.785Z,85.10
2023-05-16T02:47:46.254Z,84.44
2023-05-16T02:50:03.237Z,85.09
2023-05-16T02:52:20.559Z,84.68
2023-05-16T02:54:38.909Z,84.68
2023-05-16T02:56:55.844Z,84.64
2023-05-16T02:59:14.181Z,84.66
2023-05-16T03:01:31.501Z,84.65
2023-05-16T03:03:49.858Z,83.56
2023-05-16T03:06:07.332Z,83.39
2023-05-16T03:08:25.015Z,83.53
2023-05-16T03:10:42.402Z,83.85
2023-05-16T03:12:59.795Z,84.18
2023-05-16T03:15:17.030Z,83.83
2023-05-16T03:17:34.377Z,83.37
2023-05-16T03:19:52.093Z,84.21
2023-05-16T03:22:09.443Z,84.06
2023-05-16T03:24:27.173Z,83.84
2023-05-16T03:26:44.606Z,84.11
2023-05-16T03:29:01.670Z,84.04
2023-05-16T03:31:19.346Z,83.84
2023-05-16T03:33:37.715Z,83.14
2023-05-16T03:35:54.962Z,82.79
2023-05-16T03:38:12.243Z,83.12
2023-05-16T03:40:29.634Z,82.03
2023-05-16T03:42:47.313Z,81.52
2023-05-16T03:45:05.494Z,81.50
2023-05-16T03:47:22.396Z,81.95
2023-05-16T03:49:39.624Z,81.65
2023-05-16T03:51:56.917Z,81.03
2023-05-16T03:54:13.832Z,81.14
2023-05-16T03:56:31.070Z,80.45
2023-05-16T03:58:48.327Z,80.62
2023-05-16T04:01:05.577Z,80.28
2023-05-16T04:03:23.452Z,80.87
2023-05-16T04:05:40.489Z,80.74
2023-05-16T04:07:57.830Z,80.99
2023-05-16T04:10:15.105Z,81.05
2023-05-16T04:12:32.314Z,80.44
2023-05-16T04:14:49.551Z,80.52
2023-05-16T04:17:06.932Z,80.77
2023-05-16T04:19:24.168Z,80.81
2023-05-16T04:21:41.504Z,80.46
2023-05-16T04:23:58.415Z,80.39
2023-05-16T04:26:15.683Z,80.27
2023-05-16T04:28:32.979Z,80.36
2023-05-16T04:30:52.371Z,80.16
2023-05-16T04:33:09.685Z,79.98
2023-05-16T04:35:27.166Z,80.32
2023-05-16T04:37:44.891Z,80.13
2023-05-16T04:40:02.193Z,80.80
2023-05-16T04:42:20.095Z,79.86
2023-05-16T04:44:37.375Z,80.40
2023-05-16T04:46:54.776Z,79.91
2023-05-16T04:49:13.110Z,79.70
2023-05-16T04:51:30.131Z,79.61
2023-05-16T04:53:47.469Z,79.94
2023-05-16T04:56:04.302Z,80.28
2023-05-16T04:58:21.543Z,80.22
2023-05-16T05:00:38.799Z,80.73
2023-05-16T05:02:56.547Z,81.08
2023-05-16T05:05:13.905Z,81.75
2023-05-16T05:07:31.236Z,81.57
2023-05-16T05:09:48.717Z,82.75
2023-05-16T05:12:05.662Z,82.19
2023-05-16T05:14:23.227Z,83.24
2023-05-16T05:16:40.640Z,83.57
2023-05-16T05:18:57.967Z,83.09
2023-05-16T05:21:15.336Z,84.02
2023-05-16T05:23:33.569Z,84.30
2023-05-16T05:25:51.252Z,84.45
2023-05-16T05:28:08.554Z,84.58
2023-05-16T05:30:25.465Z,84.59
2023-05-16T05:32:42.721Z,85.04
2023-05-16T05:35:02.943Z,85.46
2023-05-16T05:37:20.191Z,84.74
2023-05-16T05:39:37.516Z,84.88
2023-05-16T05:41:54.827Z,83.85
2023-05-16T05:44:13.089Z,82.85
2023-05-16T05:46:30.463Z,82.76
2023-05-16T05:48:47.822Z,84.00
2023-05-16T05:51:05.163Z,83.88
2023-05-16T05:53:22.399Z,82.71
2023-05-16T05:55:39.701Z,82.84
2023-05-16T05:57:57.000Z,82.88
2023-05-16T06:00:14.625Z,83.59
2023-05-16T06:02:32.020Z,84.27
2023-05-16T06:04:49.366Z,83.71
2023-05-16T06:07:06.800Z,83.33
2023-05-16T06:09:24.001Z,82.97
2023-05-16T06:11:41.228Z,83.26
2023-05-16T06:13:58.520Z,82.90
2023-05-16T06:16:15.839Z,82.32
2023-05-16T06:18:33.179Z,81.83
2023-05-16T06:20:50.549Z,81.93
2023-05-16T06:23:07.874Z,81.94
2023-05-16T06:25:25.368Z,81.54
2023-05-16T06:27:43.789Z,82.31
2023-05-16T06:30:01.074Z,81.38
2023-05-16T06:32:17.988Z,81.43
2023-05-16T06:34:34.974Z,81.67
2023-05-16T06:36:51.883Z,81.91
2023-05-16T06:39:09.165Z,81.88
2023-05-16T06:41:26.506Z,81.74
2023-05-16T06:43:43.843Z,81.51
2023-05-16T06:46:00.911Z,81.96
2023-05-16T06:48:18.367Z,81.51
2023-05-16T06:50:35.748Z,82.01
2023-05-16T06:52:52.970Z,82.42
2023-05-16T06:55:10.265Z,82.27
2023-05-16T06:57:27.979Z,81.84
2023-05-16T06:59:45.273Z,81.72
2023-05-16T07:02:02.673Z,81.55
2023-05-16T07:04:20.042Z,81.51
2023-05-16T07:06:37.354Z,81.13
2023-05-16T07:08:54.617Z,81.30
2023-05-16T07:11:12.034Z,82.03
2023-05-16T07:13:29.790Z,81.83
2023-05-16T07:15:47.891Z,80.63
2023-05-16T07:18:05.320Z,81.49
2023-05-16T07:20:22.701Z,81.84
2023-05-16T07:22:40.042Z,82.00
2023-05-16T07:24:57.719Z,81.75
2023-05-16T07:27:15.977Z,81.41
2023-05-16T07:29:33.110Z,81.71
2023-05-16T07:31:50.432Z,81.22
2023-05-16T07:34:08.379Z,81.50
2023-05-16T07:36:25.527Z,81.13
2023-05-16T07:38:42.600Z,81.35
2023-05-16T07:40:59.910Z,80.66
2023-05-16T07:43:18.144Z,80.94
2023-05-16T07:45:35.373Z,80.12
2023-05-16T07:47:52.811Z,81.26
2023-05-16T07:50:10.229Z,81.06
2023-05-16T07:52:28.478Z,80.85
2023-05-16T07:54:45.747Z,80.83
2023-05-16T07:57:03.091Z,80.93
2023-05-16T07:59:20.398Z,79.92
2023-05-16T08:01:38.772Z,81.04
2023-05-16T08:03:55.955Z,80.48
2023-05-16T08:06:16.235Z,80.16
2023-05-16T08:08:33.581Z,80.50
2023-05-16T08:10:50.956Z,79.48
2023-05-16T08:13:08.245Z,78.63
2023-05-16T08:15:25.739Z,77.88
2023-05-16T08:17:43.183Z,79.19
2023-05-16T08:20:00.604Z,78.54
2023-05-16T08:22:17.544Z,79.53
2023-05-16T08:24:35.069Z,79.06
2023-05-16T08:26:53.372Z,78.77
2023-05-16T08:29:10.737Z,79.26
2023-05-16T08:31:28.022Z,78.63
2023-05-16T08:33:45.341Z,78.95
2023-05-16T08:36:03.669Z,79.00
2023-05-16T08:38:21.020Z,79.30
2023-05-16T08:40:38.282Z,78.59
2023-05-16T08:42:55.172Z,79.69
2023-05-16T08:45:12.533Z,78.68
2023-05-16T08:47:30.524Z,78.86
2023-05-16T08:49:48.965Z,76.28
2023-05-16T08:52:06.353Z,77.35
2023-05-16T08:54:24.537Z,78.16
2023-05-16T08:56:42.650Z,77.79
2023-05-16T08:59:01.287Z,77.74
2023-05-16T09:01:18.732Z,77.52
2023-05-16T09:03:35.947Z,77.21
2023-05-16T09:05:53.358Z,76.73
2023-05-16T09:08:10.761Z,75.59
2023-05-16T09:10:30.539Z,76.04
2023-05-16T09:12:48.272Z,75.83
2023-05-16T09:15:05.609Z,73.90
2023-05-16T09:17:32.198Z,72.92
2023-05-16T09:19:56.017Z,72.84
2023-05-16T09:22:15.624Z,71.39
2023-05-16T09:24:32.710Z,71.05
2023-05-16T09:26:50.003Z,69.65
2023-05-16T09:29:07.766Z,70.61
2023-05-16T09:31:25.290Z,69.94
2023-05-16T09:33:42.673Z,69.81
2023-05-16T09:36:01.030Z,69.90
2023-05-16T09:38:18.441Z,69.17
2023-05-16T09:40:35.425Z,69.83
2023-05-16T09:42:52.568Z,69.15
2023-05-16T09:45:09.857Z,69.05
2023-05-16T09:47:27.162Z,70.03
2023-05-16T09:49:44.570Z,68.78
2023-05-16T09:52:01.898Z,70.28
2023-05-16T09:54:19.180Z,70.21
2023-05-16T09:56:36.588Z,70.30
2023-05-16T09:58:53.721Z,70.11
2023-05-16T10:01:11.106Z,71.20
2023-05-16T10:03:29.634Z,69.90
2023-05-16T10:05:47.893Z,68.83
2023-05-16T10:08:07.586Z,68.48
2023-05-16T10:10:24.957Z,66.87
2023-05-16T10:12:42.363Z,66.58
2023-05-16T10:14:59.787Z,65.19
2023-05-16T10:17:17.180Z,65.61
2023-05-16T10:19:34.553Z,64.57
2023-05-16T10:21:52.301Z,64.98
2023-05-16T10:24:09.665Z,64.64
2023-05-16T10:26:26.602Z,61.11
2023-05-16T10:28:43.606Z,61.38
2023-05-16T10:31:00.983Z,61.67
2023-05-16T10:33:18.145Z,62.08
2023-05-16T10:35:35.517Z,60.92
2023-05-16T10:37:53.025Z,61.22
2023-05-16T10:40:10.347Z,60.20
2023-05-16T10:42:27.626Z,59.17
2023-05-16T10:44:54.469Z,57.10
2023-05-16T10:47:16.039Z,57.95
2023-05-16T10:49:35.874Z,56.55
2023-05-16T10:51:54.221Z,55.89
2023-05-16T10:54:11.554Z,53.32
2023-05-16T10:56:29.301Z,51.33
2023-05-16T10:58:47.074Z,51.54
2023-05-16T11:01:04.677Z,50.83
2023-05-16T11:03:22.109Z,49.72
2023-05-16T11:05:39.497Z,51.14
2023-05-16T11:07:57.203Z,51.28
2023-05-16T11:10:15.006Z,50.57
2023-05-16T11:12:33.545Z,48.62
2023-05-16T11:14:51.218Z,47.96
2023-05-16T11:17:08.674Z,48.46
2023-05-16T11:19:26.146Z,49.89
2023-05-16T11:21:43.601Z,48.60
2023-05-16T11:24:00.988Z,49.82
2023-05-16T11:26:18.686Z,51.03
2023-05-16T11:28:35.646Z,49.16
2023-05-16T11:30:52.913Z,48.54
2023-05-16T11:33:10.294Z,47.81
2023-05-16T11:35:28.168Z,47.03
2023-05-16T11:37:45.550Z,46.19
2023-05-16T11:40:02.959Z,49.31
2023-05-16T11:42:20.324Z,48.98
2023-05-16T11:44:37.322Z,46.17
2023-05-16T11:46:54.632Z,48.14
2023-05-16T11:49:11.970Z,46.84
2023-05-16T11:51:29.350Z,48.18
2023-05-16T11:53:47.630Z,44.45
2023-05-16T11:56:04.626Z,43.04
2023-05-16T11:58:22.039Z,43.93
2023-05-16T12:00:39.027Z,45.89
2023-05-16T12:02:57.452Z,45.07
2023-05-16T12:05:15.343Z,45.48
2023-05-16T12:07:32.732Z,45.42
2023-05-16T12:09:50.442Z,47.15
2023-05-16T12:12:08.704Z,44.62
2023-05-16T12:14:26.424Z,45.31
2023-05-16T12:16:43.480Z,43.93
2023-05-16T12:19:01.849Z,44.55
2023-05-16T12:21:19.247Z,41.94
2023-05-16T12:23:36.279Z,42.19
2023-05-16T12:25:54.551Z,43.72
2023-05-16T12:28:11.883Z,42.40
2023-05-16T12:30:29.521Z,43.75
2023-05-16T12:32:48.075Z,45.98
2023-05-16T12:35:06.598Z,44.31
2023-05-16T12:37:23.874Z,42.93
2023-05-16T12:39:41.226Z,42.67
2023-05-16T12:41:59.209Z,42.18
2023-05-16T12:44:16.421Z,44.50
2023-05-16T12:46:33.840Z,45.09
2023-05-16T12:48:51.538Z,44.88
2023-05-16T12:51:08.505Z,45.95
2023-05-16T12:53:25.771Z,43.54
2023-05-16T12:55:43.133Z,45.51
2023-05-16T12:58:00.576Z,43.04
2023-05-16T13:00:18.018Z,45.59
2023-05-16T13:02:36.396Z,45.06
2023-05-16T13:04:53.794Z,45.00
2023-05-16T13:07:11.138Z,44.65
2023-05-16T13:09:32.160Z,46.19
2023-05-16T13:11:51.599Z,45.32
2023-05-16T13:14:09.887Z,44.18
2023-05-16T13:16:27.221Z,46.02
2023-05-16T13:18:44.678Z,42.28
2023-05-16T13:21:02.278Z,41.86
2023-05-16T13:23:19.700Z,43.71
2023-05-16T13:25:38.215Z,43.67
2023-05-16T13:27:56.026Z,41.57
2023-05-16T13:30:13.289Z,43.15
2023-05-16T13:32:30.636Z,44.24
2023-05-16T13:34:47.949Z,44.00
2023-05-16T13:37:05.319Z,45.07
2023-05-16T13:39:22.424Z,45.41
2023-05-16T13:41:39.799Z,42.98
2023-05-16T13:43:57.134Z,45.14
2023-05-16T13:46:14.591Z,44.13
2023-05-16T13:48:32.412Z,44.23
2023-05-16T13:50:49.951Z,43.15
2023-05-16T13:53:07.341Z,44.14
2023-05-16T13:55:24.666Z,42.49
2023-05-16T13:57:42.035Z,43.60
2023-05-16T14:00:27.499Z,42.97
2023-05-16T14:02:36.363Z,44.84
2023-05-16T14:04:54.695Z,44.36
2023-05-16T14:07:11.999Z,43.73
2023-05-16T14:09:29.751Z,42.49
2023-05-16T14:11:46.745Z,43.16
2023-05-16T14:14:04.120Z,44.62
2023-05-16T14:16:22.420Z,43.96
2023-05-16T14:18:39.931Z,45.02
2023-05-16T14:20:57.861Z,44.60
2023-05-16T14:23:15.169Z,41.73
2023-05-16T14:25:33.430Z,41.90
2023-05-16T14:27:50.714Z,38.52
2023-05-16T14:30:08.822Z,39.02
2023-05-16T14:32:26.030Z,39.33
2023-05-16T14:34:44.456Z,38.48
2023-05-16T14:37:05.660Z,40.52
2023-05-16T14:39:22.820Z,38.19
2023-05-16T14:41:44.648Z,41.24
2023-05-16T14:44:02.070Z,41.66
2023-05-16T14:46:19.370Z,38.87
2023-05-16T14:48:36.728Z,39.16
2023-05-16T14:50:54.147Z,39.31
2023-05-16T14:53:11.432Z,39.24
2023-05-16T14:55:29.409Z,37.95
2023-05-16T14:57:46.813Z,39.24
2023-05-16T15:00:04.699Z,39.15
2023-05-16T15:02:22.013Z,40.51
2023-05-16T15:04:39.365Z,41.20
2023-05-16T15:06:57.395Z,40.05
2023-05-16T15:09:14.723Z,41.38
2023-05-16T15:11:32.056Z,41.17
2023-05-16T15:13:49.105Z,39.12
2023-05-16T15:16:10.356Z,39.66
2023-05-16T15:18:27.548Z,42.50
2023-05-16T15:20:44.464Z,40.18
2023-05-16T15:23:01.540Z,40.12
2023-05-16T15:25:18.918Z,42.15
2023-05-16T15:27:39.063Z,41.97
2023-05-16T15:29:56.424Z,42.48
2023-05-16T15:32:13.676Z,39.74
2023-05-16T15:34:30.672Z,41.07
2023-05-16T15:36:47.678Z,42.28
2023-05-16T15:39:05.020Z,41.12
2023-05-16T15:41:36.839Z,41.46
2023-05-16T15:43:59.642Z,43.58
2023-05-16T15:46:17.716Z,42.95
2023-05-16T15:48:34.803Z,44.64
2023-05-16T15:50:52.195Z,44.54
2023-05-16T15:53:09.516Z,45.12
2023-05-16T15:55:27.935Z,45.13
2023-05-16T15:57:45.899Z,46.66
2023-05-16T16:00:03.411Z,44.80
2023-05-16T16:02:22.174Z,45.49
2023-05-16T16:04:39.592Z,45.60
2023-05-16T16:06:56.924Z,46.54
2023-05-16T16:09:13.959Z,47.50
2023-05-16T16:11:30.993Z,48.57
2023-05-16T16:13:48.070Z,48.34
2023-05-16T16:16:05.406Z,47.98
2023-05-16T16:18:22.425Z,48.87
2023-05-16T16:20:39.678Z,48.49
2023-05-16T16:22:57.988Z,48.88
2023-05-16T16:25:15.358Z,49.26
2023-05-16T16:27:32.650Z,47.51
2023-05-16T16:29:49.599Z,48.12
2023-05-16T16:32:06.597Z,48.00
2023-05-16T16:34:23.557Z,47.33
2023-05-16T16:36:40.821Z,48.12
2023-05-16T16:38:57.777Z,46.69
2023-05-16T16:41:16.266Z,47.67
2023-05-16T16:43:33.792Z,48.90
2023-05-16T16:45:51.120Z,48.10
2023-05-16T16:48:08.471Z,47.95
2023-05-16T16:50:25.865Z,48.49
2023-05-16T16:52:43.307Z,46.42
2023-05-16T16:55:00.635Z,45.58
2023-05-16T16:57:18.017Z,42.77
2023-05-16T16:59:34.990Z,43.77
2023-05-16T17:01:52.375Z,43.63
2023-05-16T17:04:09.762Z,43.98
2023-05-16T17:06:27.142Z,43.69
2023-05-16T17:08:44.480Z,43.05
2023-05-16T17:11:02.679Z,44.46
2023-05-16T17:13:20.450Z,43.02
2023-05-16T17:15:38.036Z,44.59
2023-05-16T17:17:55.350Z,44.23
2023-05-16T17:20:12.817Z,42.97
2023-05-16T17:22:30.251Z,44.13
2023-05-16T17:24:47.529Z,43.95
2023-05-16T17:27:04.813Z,44.32
2023-05-16T17:29:21.760Z,44.94
2023-05-16T17:31:39.068Z,43.78
2023-05-16T17:33:56.046Z,43.43
2023-05-16T17:36:13.394Z,46.21
2023-05-16T17:38:30.679Z,45.14
2023-05-16T17:40:47.997Z,44.17
2023-05-16T17:43:05.284Z,43.56
2023-05-16T17:45:22.174Z,44.14
2023-05-16T17:47:39.534Z,46.73
2023-05-16T17:49:57.085Z,46.14
2023-05-16T17:52:14.257Z,45.89
2023-05-16T17:54:31.649Z,44.19
2023-05-16T17:56:48.956Z,45.16
2023-05-16T17:59:06.303Z,45.87
2023-05-16T18:01:23.737Z,46.32
2023-05-16T18:03:42.115Z,47.59
2023-05-16T18:06:02.480Z,46.68
2023-05-16T18:08:19.836Z,47.05
2023-05-16T18:10:50.330Z,46.08
2023-05-16T18:13:08.758Z,48.48
2023-05-16T18:15:26.130Z,48.10
2023-05-16T18:17:43.645Z,48.26
2023-05-16T18:20:00.778Z,48.18
2023-05-16T18:22:17.861Z,47.89
2023-05-16T18:24:35.217Z,49.58
2023-05-16T18:26:52.652Z,50.57
2023-05-16T18:29:09.679Z,50.07
2023-05-16T18:31:26.991Z,53.45
2023-05-16T18:33:44.305Z,54.85
2023-05-16T18:36:01.636Z,53.92
2023-05-16T18:38:31.378Z,53.33
2023-05-16T18:40:49.688Z,53.09
2023-05-16T18:43:08.015Z,53.72
2023-05-16T18:45:25.434Z,54.19
2023-05-16T18:47:42.891Z,54.67
2023-05-16T18:50:00.179Z,54.33
2023-05-16T18:52:17.498Z,54.99
2023-05-16T18:54:34.979Z,53.50
2023-05-16T18:56:53.030Z,55.48
2023-05-16T18:59:10.054Z,56.98
2023-05-16T19:01:27.402Z,57.70
2023-05-16T19:03:44.859Z,58.25
2023-05-16T19:06:02.154Z,60.50
2023-05-16T19:08:19.107Z,59.74
2023-05-16T19:10:36.422Z,60.25
2023-05-16T19:12:53.766Z,60.57
2023-05-16T19:15:10.694Z,61.50
2023-05-16T19:17:28.097Z,62.15
2023-05-16T19:19:46.440Z,62.11
2023-05-16T19:22:03.535Z,62.29
2023-05-16T19:24:20.842Z,62.61
2023-05-16T19:26:38.202Z,63.26
2023-05-16T19:28:55.523Z,63.33
2023-05-16T19:31:12.806Z,64.01
2023-05-16T19:33:30.099Z,63.34
2023-05-16T19:35:47.465Z,64.57
2023-05-16T19:38:04.547Z,64.74
2023-05-16T19:40:21.848Z,65.15
2023-05-16T19:42:38.874Z,65.36
2023-05-16T19:44:56.247Z,66.19
2023-05-16T19:47:13.603Z,66.31
2023-05-16T19:49:30.933Z,66.77
2023-05-16T19:51:48.323Z,66.83
2023-05-16T19:54:06.108Z,67.46
2023-05-16T19:56:23.434Z,67.39
2023-05-16T19:58:40.824Z,67.42
2023-05-16T20:00:58.544Z,67.18
2023-05-16T20:03:15.767Z,67.96
2023-05-16T20:05:32.876Z,68.04
2023-05-16T20:07:49.822Z,67.87
2023-05-16T20:10:07.135Z,68.18
2023-05-16T20:12:24.576Z,68.81
2023-05-16T20:14:42.489Z,68.19
2023-05-16T20:16:59.583Z,68.92
2023-05-16T20:19:17.019Z,68.12
2023-05-16T20:21:34.075Z,69.40
2023-05-16T20:23:51.036Z,69.56
2023-05-16T20:26:08.980Z,69.31
2023-05-16T20:28:25.913Z,68.89
2023-05-16T20:30:42.840Z,69.66
2023-05-16T20:33:00.043Z,70.76
2023-05-16T20:35:17.422Z,70.47
2023-05-16T20:37:34.497Z,71.24
2023-05-16T20:39:51.883Z,70.50
2023-05-16T20:42:09.191Z,71.21
2023-05-16T20:44:26.498Z,70.50
2023-05-16T20:46:43.860Z,71.10
2023-05-16T20:49:00.994Z,71.18
2023-05-16T20:51:18.133Z,72.61
2023-05-16T20:53:35.519Z,73.02
2023-05-16T20:55:53.254Z,72.46
2023-05-16T20:58:10.583Z,72.99
2023-05-16T21:00:27.898Z,71.82
2023-05-16T21:02:45.905Z,73.22
2023-05-16T21:05:19.652Z,72.76
2023-05-16T21:07:41.099Z,73.69
2023-05-16T21:09:58.352Z,73.03
2023-05-16T21:12:15.299Z,73.10
2023-05-16T21:14:32.586Z,74.20
2023-05-16T21:16:49.520Z,74.27
2023-05-16T21:19:06.995Z,74.41
2023-05-16T21:21:24.355Z,73.81
2023-05-16T21:23:41.291Z,74.41
2023-05-16T21:25:58.673Z,74.19
2023-05-16T21:28:16.051Z,74.37
2023-05-16T21:30:33.322Z,74.63
2023-05-16T21:32:50.662Z,74.43
2023-05-16T21:35:09.204Z,74.89
2023-05-16T21:37:26.680Z,76.25
2023-05-16T21:39:43.603Z,75.85
2023-05-16T21:42:00.954Z,77.29
2023-05-16T21:44:18.070Z,77.73
2023-05-16T21:46:35.387Z,77.49
2023-05-16T21:48:52.785Z,78.02
2023-05-16T21:51:09.790Z,78.33
2023-05-16T21:53:27.158Z,78.19
2023-05-16T21:55:44.816Z,77.95
2023-05-16T21:58:01.880Z,77.89
2023-05-16T22:00:19.233Z,78.37
2023-05-16T22:02:36.504Z,77.70
2023-05-16T22:04:57.945Z,78.43
2023-05-16T22:07:16.454Z,79.02
2023-05-16T22:09:33.823Z,78.89
2023-05-16T22:11:50.833Z,78.22
2023-05-16T22:14:08.329Z,77.40
2023-05-16T22:16:25.330Z,78.74
2023-05-16T22:18:42.974Z,79.25
2023-05-16T22:21:00.109Z,78.51
2023-05-16T22:23:17.440Z,79.48
2023-05-16T22:25:36.872Z,79.11
2023-05-16T22:27:54.245Z,79.21
2023-05-16T22:30:13.736Z,79.43
2023-05-16T22:32:32.143Z,79.37
2023-05-16T22:34:50.576Z,79.65
2023-05-16T22:37:08.031Z,79.84
2023-05-16T22:39:25.450Z,80.13
2023-05-16T22:41:42.776Z,79.86
2023-05-16T22:43:59.767Z,80.93
2023-05-16T22:46:17.024Z,80.78
2023-05-16T22:48:34.493Z,80.90
2023-05-16T22:50:52.036Z,81.88
2023-05-16T22:53:11.460Z,81.99
2023-05-16T22:55:29.635Z,81.50
2023-05-16T22:57:46.922Z,81.37
2023-05-16T23:00:03.902Z,82.04
2023-05-16T23:02:21.508Z,81.12
2023-05-16T23:04:38.955Z,81.49
2023-05-16T23:06:56.415Z,82.20
2023-05-16T23:09:13.546Z,82.24
2023-05-16T23:11:30.877Z,82.22
2023-05-16T23:13:48.190Z,81.77
2023-05-16T23:16:05.561Z,81.88
2023-05-16T23:18:22.905Z,82.87
2023-05-16T23:20:40.682Z,82.46
2023-05-16T23:22:57.750Z,81.93
2023-05-16T23:25:15.045Z,81.78
2023-05-16T23:27:31.979Z,81.96
2023-05-16T23:29:48.932Z,82.21
2023-05-16T23:32:05.891Z,82.64
2023-05-16T23:34:23.240Z,82.62
2023-05-16T23:36:40.576Z,81.54
2023-05-16T23:38:57.946Z,82.03
2023-05-16T23:41:16.570Z,81.61
2023-05-16T23:43:33.877Z,82.23
2023-05-16T23:45:51.120Z,80.87
2023-05-16T23:48:08.433Z,80.67
2023-05-16T23:50:25.844Z,81.20
2023-05-16T23:52:43.285Z,81.40
2023-05-16T23:55:00.252Z,82.81
2023-05-16T23:57:17.661Z,82.24
2023-05-16T23:59:34.607Z,81.56
